sensor_id;sensor_type;location;lat;lon;timestamp;temperature;humidity
6018;DHT22;3037;51.068;13.780;2023-03-20T00:00:55;10.00;99.90
6018;DHT22;3037;51.068;13.780;2023-03-20T00:03:22;10.10;99.90
6018;DHT22;3037;51.068;13.780;2023-03-20T00:05:47;10.20;99.90
6018;DHT22;3037;51.068;13.780;2023-03-20T00:08:14;10.20;99.90
6018;DHT22;3037;51.068;13.780;2023-03-20T00:10:43;10.10;99.90
6018;DHT22;3037;51.068;13.780;2023-03-20T00:13:24;10.00;99.90
6018;DHT22;3037;51.068;13.780;2023-03-20T00:15:51;10.10;99.90
6018;DHT22;3037;51.068;13.780;2023-03-20T00:18:20;10.10;99.90
6018;DHT22;3037;51.068;13.780;2023-03-20T00:20:49;10.00;99.90
6018;DHT22;3037;51.068;13.780;2023-03-20T00:23:15;10.00;99.90
6018;DHT22;3037;51.068;13.780;2023-03-20T00:25:43;10.10;99.90
6018;DHT22;3037;51.068;13.780;2023-03-20T00:28:36;10.20;99.90
6018;DHT22;3037;51.068;13.780;2023-03-20T00:31:27;10.20;99.90
6018;DHT22;3037;51.068;13.780;2023-03-20T00:33:58;10.20;99.90
6018;DHT22;3037;51.068;13.780;2023-03-20T00:36:25;10.20;99.90
6018;DHT22;3037;51.068;13.780;2023-03-20T00:38:50;10.40;99.90
6018;DHT22;3037;51.068;13.780;2023-03-20T00:41:43;10.30;99.90
6018;DHT22;3037;51.068;13.780;2023-03-20T00:44:43;10.20;99.90
6018;DHT22;3037;51.068;13.780;2023-03-20T00:47:17;10.30;99.90
6018;DHT22;3037;51.068;13.780;2023-03-20T00:49:46;10.20;99.90
6018;DHT22;3037;51.068;13.780;2023-03-20T00:52:11;10.10;99.90
6018;DHT22;3037;51.068;13.780;2023-03-20T00:54:37;10.10;99.90
6018;DHT22;3037;51.068;13.780;2023-03-20T00:57:07;10.10;99.90
6018;DHT22;3037;51.068;13.780;2023-03-20T00:59:35;10.00;99.90
6018;DHT22;3037;51.068;13.780;2023-03-20T01:02:02;10.10;99.90
6018;DHT22;3037;51.068;13.780;2023-03-20T01:04:39;10.10;99.90
6018;DHT22;3037;51.068;13.780;2023-03-20T01:07:06;10.00;99.90
6018;DHT22;3037;51.068;13.780;2023-03-20T01:09:32;10.10;99.90
6018;DHT22;3037;51.068;13.780;2023-03-20T01:12:01;10.00;99.90
6018;DHT22;3037;51.068;13.780;2023-03-20T01:14:27;10.00;99.90
6018;DHT22;3037;51.068;13.780;2023-03-20T01:16:53;10.10;99.90
6018;DHT22;3037;51.068;13.780;2023-03-20T01:19:18;10.00;99.90
6018;DHT22;3037;51.068;13.780;2023-03-20T01:21:44;10.00;99.90
6018;DHT22;3037;51.068;13.780;2023-03-20T01:24:09;9.90;99.90
6018;DHT22;3037;51.068;13.780;2023-03-20T01:26:37;10.00;99.90
6018;DHT22;3037;51.068;13.780;2023-03-20T01:29:11;10.00;99.90
6018;DHT22;3037;51.068;13.780;2023-03-20T01:31:37;9.80;99.90
6018;DHT22;3037;51.068;13.780;2023-03-20T01:34:03;10.00;99.90
6018;DHT22;3037;51.068;13.780;2023-03-20T01:36:28;10.00;99.90
6018;DHT22;3037;51.068;13.780;2023-03-20T01:38:56;10.00;99.90
6018;DHT22;3037;51.068;13.780;2023-03-20T01:41:24;9.90;99.90
6018;DHT22;3037;51.068;13.780;2023-03-20T01:43:50;9.80;99.90
6018;DHT22;3037;51.068;13.780;2023-03-20T01:46:24;9.70;99.90
6018;DHT22;3037;51.068;13.780;2023-03-20T01:53:59;9.70;99.90
6018;DHT22;3037;51.068;13.780;2023-03-20T01:56:27;9.90;99.90
6018;DHT22;3037;51.068;13.780;2023-03-20T01:59:15;9.80;99.90
6018;DHT22;3037;51.068;13.780;2023-03-20T02:01:43;9.80;99.90
6018;DHT22;3037;51.068;13.780;2023-03-20T02:04:10;9.80;99.90
6018;DHT22;3037;51.068;13.780;2023-03-20T02:06:36;9.80;99.90
6018;DHT22;3037;51.068;13.780;2023-03-20T02:09:02;9.70;99.90
6018;DHT22;3037;51.068;13.780;2023-03-20T02:11:28;9.80;99.90
6018;DHT22;3037;51.068;13.780;2023-03-20T02:13:56;9.80;99.90
6018;DHT22;3037;51.068;13.780;2023-03-20T02:16:23;9.90;99.90
6018;DHT22;3037;51.068;13.780;2023-03-20T02:18:50;9.90;99.90
6018;DHT22;3037;51.068;13.780;2023-03-20T02:21:33;9.90;99.90
6018;DHT22;3037;51.068;13.780;2023-03-20T02:24:21;9.90;99.90
6018;DHT22;3037;51.068;13.780;2023-03-20T02:27:01;9.90;99.90
6018;DHT22;3037;51.068;13.780;2023-03-20T02:29:50;9.90;99.90
6018;DHT22;3037;51.068;13.780;2023-03-20T02:38:13;9.90;99.90
6018;DHT22;3037;51.068;13.780;2023-03-20T02:41:00;9.90;99.90
6018;DHT22;3037;51.068;13.780;2023-03-20T02:43:47;9.90;99.90
6018;DHT22;3037;51.068;13.780;2023-03-20T02:49:30;9.90;99.90
6018;DHT22;3037;51.068;13.780;2023-03-20T02:52:17;9.80;99.90
6018;DHT22;3037;51.068;13.780;2023-03-20T02:55:04;9.80;99.90
6018;DHT22;3037;51.068;13.780;2023-03-20T03:00:25;9.80;99.90
6018;DHT22;3037;51.068;13.780;2023-03-20T03:06:04;9.90;99.90
6018;DHT22;3037;51.068;13.780;2023-03-20T03:08:35;9.80;99.90
6018;DHT22;3037;51.068;13.780;2023-03-20T03:11:06;9.80;99.90
6018;DHT22;3037;51.068;13.780;2023-03-20T03:13:35;9.80;99.90
6018;DHT22;3037;51.068;13.780;2023-03-20T03:16:09;10.00;99.90
6018;DHT22;3037;51.068;13.780;2023-03-20T03:18:36;9.90;99.90
6018;DHT22;3037;51.068;13.780;2023-03-20T03:21:03;9.90;99.90
6018;DHT22;3037;51.068;13.780;2023-03-20T03:23:38;9.80;99.90
6018;DHT22;3037;51.068;13.780;2023-03-20T03:26:08;9.80;99.90
6018;DHT22;3037;51.068;13.780;2023-03-20T03:28:41;9.80;99.90
6018;DHT22;3037;51.068;13.780;2023-03-20T03:31:10;9.60;99.90
6018;DHT22;3037;51.068;13.780;2023-03-20T03:33:38;9.60;99.90
6018;DHT22;3037;51.068;13.780;2023-03-20T03:39:20;9.80;99.90
6018;DHT22;3037;51.068;13.780;2023-03-20T03:41:56;9.80;99.90
6018;DHT22;3037;51.068;13.780;2023-03-20T03:47:06;9.90;99.90
6018;DHT22;3037;51.068;13.780;2023-03-20T03:49:38;10.00;99.90
6018;DHT22;3037;51.068;13.780;2023-03-20T03:52:09;10.00;99.90
6018;DHT22;3037;51.068;13.780;2023-03-20T03:54:51;10.00;99.90
6018;DHT22;3037;51.068;13.780;2023-03-20T03:57:23;10.00;99.90
6018;DHT22;3037;51.068;13.780;2023-03-20T03:59:52;10.00;99.90
6018;DHT22;3037;51.068;13.780;2023-03-20T04:02:20;10.00;99.90
6018;DHT22;3037;51.068;13.780;2023-03-20T04:04:49;9.90;99.90
6018;DHT22;3037;51.068;13.780;2023-03-20T04:07:15;10.00;99.90
6018;DHT22;3037;51.068;13.780;2023-03-20T04:09:41;10.10;99.90
6018;DHT22;3037;51.068;13.780;2023-03-20T04:12:28;10.00;99.90
6018;DHT22;3037;51.068;13.780;2023-03-20T04:14:54;10.10;99.90
6018;DHT22;3037;51.068;13.780;2023-03-20T04:17:20;10.30;99.90
6018;DHT22;3037;51.068;13.780;2023-03-20T04:19:45;10.00;99.90
6018;DHT22;3037;51.068;13.780;2023-03-20T04:22:11;9.80;99.90
6018;DHT22;3037;51.068;13.780;2023-03-20T04:24:37;9.80;99.90
6018;DHT22;3037;51.068;13.780;2023-03-20T04:27:02;9.80;99.90
6018;DHT22;3037;51.068;13.780;2023-03-20T04:29:28;9.70;99.90
6018;DHT22;3037;51.068;13.780;2023-03-20T04:31:54;9.70;99.90
6018;DHT22;3037;51.068;13.780;2023-03-20T04:34:21;9.70;99.90
6018;DHT22;3037;51.068;13.780;2023-03-20T04:36:47;9.80;99.90
6018;DHT22;3037;51.068;13.780;2023-03-20T04:39:13;9.80;99.90
6018;DHT22;3037;51.068;13.780;2023-03-20T04:41:38;9.80;99.90
6018;DHT22;3037;51.068;13.780;2023-03-20T04:44:05;9.90;99.90
6018;DHT22;3037;51.068;13.780;2023-03-20T04:46:30;9.80;99.90
6018;DHT22;3037;51.068;13.780;2023-03-20T04:48:56;9.70;99.90
6018;DHT22;3037;51.068;13.780;2023-03-20T04:51:21;9.80;99.90
6018;DHT22;3037;51.068;13.780;2023-03-20T04:53:47;9.80;99.90
6018;DHT22;3037;51.068;13.780;2023-03-20T04:56:12;9.80;99.90
6018;DHT22;3037;51.068;13.780;2023-03-20T04:58:38;9.90;99.90
6018;DHT22;3037;51.068;13.780;2023-03-20T05:01:03;10.00;99.90
6018;DHT22;3037;51.068;13.780;2023-03-20T05:03:29;9.90;99.90
6018;DHT22;3037;51.068;13.780;2023-03-20T05:05:55;9.90;99.90
6018;DHT22;3037;51.068;13.780;2023-03-20T05:08:20;9.80;99.90
6018;DHT22;3037;51.068;13.780;2023-03-20T05:10:46;9.90;99.90
6018;DHT22;3037;51.068;13.780;2023-03-20T05:13:11;9.80;99.90
6018;DHT22;3037;51.068;13.780;2023-03-20T05:15:37;9.90;99.90
6018;DHT22;3037;51.068;13.780;2023-03-20T05:18:02;9.90;99.90
6018;DHT22;3037;51.068;13.780;2023-03-20T05:20:28;9.80;99.90
6018;DHT22;3037;51.068;13.780;2023-03-20T05:22:53;9.80;99.90
6018;DHT22;3037;51.068;13.780;2023-03-20T05:25:19;9.80;99.90
6018;DHT22;3037;51.068;13.780;2023-03-20T05:27:45;9.80;99.90
6018;DHT22;3037;51.068;13.780;2023-03-20T05:30:11;9.80;99.90
6018;DHT22;3037;51.068;13.780;2023-03-20T05:32:37;10.00;99.90
6018;DHT22;3037;51.068;13.780;2023-03-20T05:35:03;10.10;99.90
6018;DHT22;3037;51.068;13.780;2023-03-20T05:37:29;10.00;99.90
6018;DHT22;3037;51.068;13.780;2023-03-20T05:39:54;10.00;99.90
6018;DHT22;3037;51.068;13.780;2023-03-20T05:42:20;10.10;99.90
6018;DHT22;3037;51.068;13.780;2023-03-20T05:44:46;10.10;99.90
6018;DHT22;3037;51.068;13.780;2023-03-20T05:47:11;10.10;99.90
6018;DHT22;3037;51.068;13.780;2023-03-20T05:49:36;10.20;99.90
6018;DHT22;3037;51.068;13.780;2023-03-20T05:52:02;10.40;99.90
6018;DHT22;3037;51.068;13.780;2023-03-20T05:54:27;10.30;99.90
6018;DHT22;3037;51.068;13.780;2023-03-20T05:56:53;10.40;99.90
6018;DHT22;3037;51.068;13.780;2023-03-20T05:59:18;10.60;99.90
6018;DHT22;3037;51.068;13.780;2023-03-20T06:01:44;10.70;99.90
6018;DHT22;3037;51.068;13.780;2023-03-20T06:04:10;10.80;40.80
6018;DHT22;3037;51.068;13.780;2023-03-20T06:06:35;10.80;45.00
6018;DHT22;3037;51.068;13.780;2023-03-20T06:09:03;10.90;7.50
6018;DHT22;3037;51.068;13.780;2023-03-20T06:11:28;10.90;1.00
6018;DHT22;3037;51.068;13.780;2023-03-20T06:13:54;11.00;6.60
6018;DHT22;3037;51.068;13.780;2023-03-20T06:16:20;11.00;1.00
6018;DHT22;3037;51.068;13.780;2023-03-20T06:18:46;11.10;1.00
6018;DHT22;3037;51.068;13.780;2023-03-20T06:21:11;11.20;1.00
6018;DHT22;3037;51.068;13.780;2023-03-20T06:23:37;11.40;1.00
6018;DHT22;3037;51.068;13.780;2023-03-20T06:26:03;11.50;1.00
6018;DHT22;3037;51.068;13.780;2023-03-20T06:28:28;11.60;99.90
6018;DHT22;3037;51.068;13.780;2023-03-20T06:30:54;11.80;1.00
6018;DHT22;3037;51.068;13.780;2023-03-20T06:33:20;11.80;1.00
6018;DHT22;3037;51.068;13.780;2023-03-20T06:35:46;12.10;1.00
6018;DHT22;3037;51.068;13.780;2023-03-20T06:38:12;12.30;99.90
6018;DHT22;3037;51.068;13.780;2023-03-20T06:40:38;13.00;99.90
6018;DHT22;3037;51.068;13.780;2023-03-20T06:43:03;13.50;1.00
6018;DHT22;3037;51.068;13.780;2023-03-20T06:45:29;13.40;1.00
6018;DHT22;3037;51.068;13.780;2023-03-20T06:47:55;13.50;1.00
6018;DHT22;3037;51.068;13.780;2023-03-20T06:50:21;13.80;1.00
6018;DHT22;3037;51.068;13.780;2023-03-20T06:52:47;13.70;1.00
6018;DHT22;3037;51.068;13.780;2023-03-20T06:55:12;15.50;1.00
6018;DHT22;3037;51.068;13.780;2023-03-20T06:57:38;15.00;1.00
6018;DHT22;3037;51.068;13.780;2023-03-20T07:00:04;15.00;1.00
6018;DHT22;3037;51.068;13.780;2023-03-20T07:02:30;14.70;1.00
6018;DHT22;3037;51.068;13.780;2023-03-20T07:04:56;16.20;1.00
6018;DHT22;3037;51.068;13.780;2023-03-20T07:07:22;19.00;1.00
6018;DHT22;3037;51.068;13.780;2023-03-20T07:09:47;20.90;1.00
6018;DHT22;3037;51.068;13.780;2023-03-20T07:12:15;22.40;1.00
6018;DHT22;3037;51.068;13.780;2023-03-20T07:14:41;20.00;1.00
6018;DHT22;3037;51.068;13.780;2023-03-20T07:17:07;21.80;1.00
6018;DHT22;3037;51.068;13.780;2023-03-20T07:19:34;23.40;1.00
6018;DHT22;3037;51.068;13.780;2023-03-20T07:22:01;23.70;1.00
6018;DHT22;3037;51.068;13.780;2023-03-20T07:24:27;24.50;1.00
6018;DHT22;3037;51.068;13.780;2023-03-20T07:29:18;25.50;1.00
6018;DHT22;3037;51.068;13.780;2023-03-20T07:31:43;24.70;1.00
6018;DHT22;3037;51.068;13.780;2023-03-20T07:34:09;22.10;1.00
6018;DHT22;3037;51.068;13.780;2023-03-20T07:36:36;21.70;1.00
6018;DHT22;3037;51.068;13.780;2023-03-20T07:39:02;20.70;1.00
6018;DHT22;3037;51.068;13.780;2023-03-20T07:41:27;19.70;1.00
6018;DHT22;3037;51.068;13.780;2023-03-20T07:43:53;19.10;1.00
6018;DHT22;3037;51.068;13.780;2023-03-20T07:46:18;18.40;1.00
6018;DHT22;3037;51.068;13.780;2023-03-20T07:48:44;17.90;1.00
6018;DHT22;3037;51.068;13.780;2023-03-20T07:51:09;17.50;1.00
6018;DHT22;3037;51.068;13.780;2023-03-20T07:53:35;17.20;1.00
6018;DHT22;3037;51.068;13.780;2023-03-20T07:56:01;16.80;1.00
6018;DHT22;3037;51.068;13.780;2023-03-20T07:58:26;16.30;1.00
6018;DHT22;3037;51.068;13.780;2023-03-20T08:00:52;16.20;1.00
6018;DHT22;3037;51.068;13.780;2023-03-20T08:03:17;15.80;1.00
6018;DHT22;3037;51.068;13.780;2023-03-20T08:05:43;15.60;1.00
6018;DHT22;3037;51.068;13.780;2023-03-20T08:08:08;15.40;1.00
6018;DHT22;3037;51.068;13.780;2023-03-20T08:10:34;15.00;1.00
6018;DHT22;3037;51.068;13.780;2023-03-20T08:13:00;14.50;1.00
6018;DHT22;3037;51.068;13.780;2023-03-20T08:15:25;14.40;1.00
6018;DHT22;3037;51.068;13.780;2023-03-20T08:17:51;14.00;1.00
6018;DHT22;3037;51.068;13.780;2023-03-20T08:20:16;13.90;1.00
6018;DHT22;3037;51.068;13.780;2023-03-20T08:22:43;14.00;1.00
6018;DHT22;3037;51.068;13.780;2023-03-20T08:25:09;14.20;1.00
6018;DHT22;3037;51.068;13.780;2023-03-20T08:27:36;14.10;1.00
6018;DHT22;3037;51.068;13.780;2023-03-20T08:30:03;14.20;1.00
6018;DHT22;3037;51.068;13.780;2023-03-20T08:32:29;14.30;1.00
6018;DHT22;3037;51.068;13.780;2023-03-20T08:34:54;14.10;1.00
6018;DHT22;3037;51.068;13.780;2023-03-20T08:37:21;14.00;1.00
6018;DHT22;3037;51.068;13.780;2023-03-20T08:39:46;14.00;1.00
6018;DHT22;3037;51.068;13.780;2023-03-20T08:42:12;14.00;1.00
6018;DHT22;3037;51.068;13.780;2023-03-20T08:44:38;14.10;1.00
6018;DHT22;3037;51.068;13.780;2023-03-20T08:47:05;14.10;1.00
6018;DHT22;3037;51.068;13.780;2023-03-20T08:49:34;14.20;1.00
6018;DHT22;3037;51.068;13.780;2023-03-20T08:52:01;14.30;1.00
6018;DHT22;3037;51.068;13.780;2023-03-20T08:54:27;14.20;1.00
6018;DHT22;3037;51.068;13.780;2023-03-20T08:56:52;14.40;1.00
6018;DHT22;3037;51.068;13.780;2023-03-20T08:59:18;14.60;1.00
6018;DHT22;3037;51.068;13.780;2023-03-20T09:01:44;15.20;1.00
6018;DHT22;3037;51.068;13.780;2023-03-20T09:04:11;16.40;1.00
6018;DHT22;3037;51.068;13.780;2023-03-20T09:06:37;16.10;1.00
6018;DHT22;3037;51.068;13.780;2023-03-20T09:09:03;17.40;1.00
6018;DHT22;3037;51.068;13.780;2023-03-20T09:11:29;18.80;1.00
6018;DHT22;3037;51.068;13.780;2023-03-20T09:13:55;18.30;1.00
6018;DHT22;3037;51.068;13.780;2023-03-20T09:16:20;18.60;1.00
6018;DHT22;3037;51.068;13.780;2023-03-20T09:18:46;19.20;1.00
6018;DHT22;3037;51.068;13.780;2023-03-20T09:21:12;18.30;1.00
6018;DHT22;3037;51.068;13.780;2023-03-20T09:23:37;17.70;1.00
6018;DHT22;3037;51.068;13.780;2023-03-20T09:26:03;17.20;1.00
6018;DHT22;3037;51.068;13.780;2023-03-20T09:28:28;16.90;1.00
6018;DHT22;3037;51.068;13.780;2023-03-20T09:30:58;16.20;1.00
6018;DHT22;3037;51.068;13.780;2023-03-20T09:33:24;16.10;1.00
6018;DHT22;3037;51.068;13.780;2023-03-20T09:35:49;16.00;1.00
6018;DHT22;3037;51.068;13.780;2023-03-20T09:38:15;15.90;1.00
6018;DHT22;3037;51.068;13.780;2023-03-20T09:41:01;16.10;1.00
6018;DHT22;3037;51.068;13.780;2023-03-20T09:46:31;16.00;1.00
6018;DHT22;3037;51.068;13.780;2023-03-20T09:51:59;15.70;1.00
6018;DHT22;3037;51.068;13.780;2023-03-20T09:54:26;16.00;1.00
6018;DHT22;3037;51.068;13.780;2023-03-20T09:56:54;16.10;1.00
6018;DHT22;3037;51.068;13.780;2023-03-20T09:59:22;16.10;1.00
6018;DHT22;3037;51.068;13.780;2023-03-20T10:01:52;15.90;1.00
6018;DHT22;3037;51.068;13.780;2023-03-20T10:04:19;16.00;1.00
6018;DHT22;3037;51.068;13.780;2023-03-20T10:06:45;16.00;1.00
6018;DHT22;3037;51.068;13.780;2023-03-20T10:09:22;16.00;1.00
6018;DHT22;3037;51.068;13.780;2023-03-20T10:14:52;16.00;1.00
6018;DHT22;3037;51.068;13.780;2023-03-20T10:20:10;17.80;1.00
6018;DHT22;3037;51.068;13.780;2023-03-20T10:22:40;18.60;1.00
6018;DHT22;3037;51.068;13.780;2023-03-20T10:28:21;20.00;1.00
6018;DHT22;3037;51.068;13.780;2023-03-20T10:36:34;23.40;1.00
6018;DHT22;3037;51.068;13.780;2023-03-20T10:42:00;21.60;1.00
6018;DHT22;3037;51.068;13.780;2023-03-20T10:44:28;20.90;1.00
6018;DHT22;3037;51.068;13.780;2023-03-20T10:46:57;20.30;1.00
6018;DHT22;3037;51.068;13.780;2023-03-20T10:49:40;19.00;1.00
6018;DHT22;3037;51.068;13.780;2023-03-20T10:52:17;19.30;1.00
6018;DHT22;3037;51.068;13.780;2023-03-20T10:54:47;19.10;1.00
6018;DHT22;3037;51.068;13.780;2023-03-20T10:57:24;19.60;1.00
6018;DHT22;3037;51.068;13.780;2023-03-20T10:59:54;19.30;1.00
6018;DHT22;3037;51.068;13.780;2023-03-20T11:02:21;19.40;1.00
6018;DHT22;3037;51.068;13.780;2023-03-20T11:04:49;19.10;1.00
6018;DHT22;3037;51.068;13.780;2023-03-20T11:07:25;18.10;1.00
6018;DHT22;3037;51.068;13.780;2023-03-20T11:12:32;17.20;1.00
6018;DHT22;3037;51.068;13.780;2023-03-20T11:15:24;17.40;1.00
6018;DHT22;3037;51.068;13.780;2023-03-20T11:17:52;17.30;1.00
6018;DHT22;3037;51.068;13.780;2023-03-20T11:20:18;17.90;1.00
6018;DHT22;3037;51.068;13.780;2023-03-20T11:22:43;19.00;1.00
6018;DHT22;3037;51.068;13.780;2023-03-20T11:25:32;19.60;1.00
6018;DHT22;3037;51.068;13.780;2023-03-20T11:30:43;18.90;1.00
6018;DHT22;3037;51.068;13.780;2023-03-20T11:33:09;18.40;1.00
6018;DHT22;3037;51.068;13.780;2023-03-20T11:35:35;18.20;1.00
6018;DHT22;3037;51.068;13.780;2023-03-20T11:38:19;17.80;1.00
6018;DHT22;3037;51.068;13.780;2023-03-20T11:40:46;18.50;1.00
6018;DHT22;3037;51.068;13.780;2023-03-20T11:43:24;18.20;1.00
6018;DHT22;3037;51.068;13.780;2023-03-20T11:45:58;18.90;1.00
6018;DHT22;3037;51.068;13.780;2023-03-20T11:48:36;18.10;1.00
6018;DHT22;3037;51.068;13.780;2023-03-20T11:51:07;18.00;1.00
6018;DHT22;3037;51.068;13.780;2023-03-20T11:56:20;17.60;1.00
6018;DHT22;3037;51.068;13.780;2023-03-20T12:01:45;18.20;1.00
6018;DHT22;3037;51.068;13.780;2023-03-20T12:04:34;18.00;1.00
6018;DHT22;3037;51.068;13.780;2023-03-20T12:07:11;17.90;1.00
6018;DHT22;3037;51.068;13.780;2023-03-20T12:12:23;17.90;1.00
6018;DHT22;3037;51.068;13.780;2023-03-20T12:20:44;17.20;1.00
6018;DHT22;3037;51.068;13.780;2023-03-20T12:23:20;17.20;1.00
6018;DHT22;3037;51.068;13.780;2023-03-20T12:25:54;16.70;1.00
6018;DHT22;3037;51.068;13.780;2023-03-20T12:28:49;16.50;1.00
6018;DHT22;3037;51.068;13.780;2023-03-20T12:31:43;16.80;1.00
6018;DHT22;3037;51.068;13.780;2023-03-20T12:36:47;17.00;1.00
6018;DHT22;3037;51.068;13.780;2023-03-20T12:39:20;16.80;1.00
6018;DHT22;3037;51.068;13.780;2023-03-20T12:44:34;16.30;1.00
6018;DHT22;3037;51.068;13.780;2023-03-20T12:50:02;16.10;1.00
6018;DHT22;3037;51.068;13.780;2023-03-20T13:00:31;16.10;1.00
6018;DHT22;3037;51.068;13.780;2023-03-20T13:03:04;16.00;1.00
6018;DHT22;3037;51.068;13.780;2023-03-20T13:16:10;16.90;1.00
6018;DHT22;3037;51.068;13.780;2023-03-20T13:18:46;17.20;1.00
6018;DHT22;3037;51.068;13.780;2023-03-20T13:22:11;16.90;1.00
6018;DHT22;3037;51.068;13.780;2023-03-20T13:25:07;16.30;1.00
6018;DHT22;3037;51.068;13.780;2023-03-20T13:27:31;16.40;1.00
6018;DHT22;3037;51.068;13.780;2023-03-20T13:30:38;16.40;1.00
6018;DHT22;3037;51.068;13.780;2023-03-20T13:35:57;16.70;1.00
6018;DHT22;3037;51.068;13.780;2023-03-20T13:38:32;16.70;1.00
6018;DHT22;3037;51.068;13.780;2023-03-20T13:41:02;16.10;1.00
6018;DHT22;3037;51.068;13.780;2023-03-20T13:43:48;16.00;1.00
6018;DHT22;3037;51.068;13.780;2023-03-20T13:48:47;15.50;1.00
6018;DHT22;3037;51.068;13.780;2023-03-20T13:51:44;15.90;1.00
6018;DHT22;3037;51.068;13.780;2023-03-20T14:05:22;15.80;1.00
6018;DHT22;3037;51.068;13.780;2023-03-20T14:07:50;15.50;1.00
6018;DHT22;3037;51.068;13.780;2023-03-20T14:12:52;15.30;1.00
6018;DHT22;3037;51.068;13.780;2023-03-20T14:15:19;15.10;1.00
6018;DHT22;3037;51.068;13.780;2023-03-20T14:17:47;15.20;1.00
6018;DHT22;3037;51.068;13.780;2023-03-20T14:22:55;14.90;1.00
6018;DHT22;3037;51.068;13.780;2023-03-20T14:25:22;15.10;1.00
6018;DHT22;3037;51.068;13.780;2023-03-20T14:27:58;14.90;1.00
6018;DHT22;3037;51.068;13.780;2023-03-20T14:33:45;14.70;1.00
6018;DHT22;3037;51.068;13.780;2023-03-20T14:35:49;14.50;1.00
6018;DHT22;3037;51.068;13.780;2023-03-20T14:38:45;14.40;1.00
6018;DHT22;3037;51.068;13.780;2023-03-20T14:41:36;14.10;1.00
6018;DHT22;3037;51.068;13.780;2023-03-20T14:44:29;14.10;99.90
6018;DHT22;3037;51.068;13.780;2023-03-20T14:50:02;13.70;1.00
6018;DHT22;3037;51.068;13.780;2023-03-20T14:57:42;13.30;99.90
6018;DHT22;3037;51.068;13.780;2023-03-20T15:00:20;13.20;1.00
6018;DHT22;3037;51.068;13.780;2023-03-20T15:02:49;13.30;99.90
6018;DHT22;3037;51.068;13.780;2023-03-20T15:05:24;13.20;1.00
6018;DHT22;3037;51.068;13.780;2023-03-20T15:07:51;13.20;1.00
6018;DHT22;3037;51.068;13.780;2023-03-20T15:10:17;13.10;99.90
6018;DHT22;3037;51.068;13.780;2023-03-20T15:12:43;13.10;99.90
6018;DHT22;3037;51.068;13.780;2023-03-20T15:15:24;13.00;1.00
6018;DHT22;3037;51.068;13.780;2023-03-20T15:17:50;12.80;1.00
6018;DHT22;3037;51.068;13.780;2023-03-20T15:20:21;12.80;99.90
6018;DHT22;3037;51.068;13.780;2023-03-20T15:22:52;12.80;1.00
6018;DHT22;3037;51.068;13.780;2023-03-20T15:25:20;12.60;99.90
6018;DHT22;3037;51.068;13.780;2023-03-20T15:27:47;12.50;1.00
6018;DHT22;3037;51.068;13.780;2023-03-20T15:30:19;12.40;1.00
6018;DHT22;3037;51.068;13.780;2023-03-20T15:32:47;12.40;99.90
6018;DHT22;3037;51.068;13.780;2023-03-20T15:35:17;12.30;1.00
6018;DHT22;3037;51.068;13.780;2023-03-20T15:37:45;12.20;1.00
6018;DHT22;3037;51.068;13.780;2023-03-20T15:40:21;12.20;1.00
6018;DHT22;3037;51.068;13.780;2023-03-20T15:42:57;12.10;1.00
6018;DHT22;3037;51.068;13.780;2023-03-20T15:45:30;11.90;99.90
6018;DHT22;3037;51.068;13.780;2023-03-20T15:48:19;11.90;99.90
6018;DHT22;3037;51.068;13.780;2023-03-20T15:50:50;11.90;99.90
6018;DHT22;3037;51.068;13.780;2023-03-20T15:53:20;12.00;99.90
6018;DHT22;3037;51.068;13.780;2023-03-20T15:55:49;11.90;99.90
6018;DHT22;3037;51.068;13.780;2023-03-20T15:58:16;11.90;99.90
6018;DHT22;3037;51.068;13.780;2023-03-20T16:00:45;11.90;99.90
6018;DHT22;3037;51.068;13.780;2023-03-20T16:03:17;11.80;99.90
6018;DHT22;3037;51.068;13.780;2023-03-20T16:05:45;11.70;99.90
6018;DHT22;3037;51.068;13.780;2023-03-20T16:08:27;11.70;99.90
6018;DHT22;3037;51.068;13.780;2023-03-20T16:11:02;11.70;99.90
6018;DHT22;3037;51.068;13.780;2023-03-20T16:13:32;11.70;99.90
6018;DHT22;3037;51.068;13.780;2023-03-20T16:16:01;11.60;99.90
6018;DHT22;3037;51.068;13.780;2023-03-20T16:18:29;11.60;99.90
6018;DHT22;3037;51.068;13.780;2023-03-20T16:21:00;11.60;99.90
6018;DHT22;3037;51.068;13.780;2023-03-20T16:23:42;11.70;99.90
6018;DHT22;3037;51.068;13.780;2023-03-20T16:26:14;11.70;99.90
6018;DHT22;3037;51.068;13.780;2023-03-20T16:28:40;11.60;99.90
6018;DHT22;3037;51.068;13.780;2023-03-20T16:31:22;11.60;99.90
6018;DHT22;3037;51.068;13.780;2023-03-20T16:33:49;11.60;99.90
6018;DHT22;3037;51.068;13.780;2023-03-20T16:36:17;11.90;99.90
6018;DHT22;3037;51.068;13.780;2023-03-20T16:41:32;11.70;1.00
6018;DHT22;3037;51.068;13.780;2023-03-20T16:43:58;11.70;1.00
6018;DHT22;3037;51.068;13.780;2023-03-20T16:46:26;11.60;1.00
6018;DHT22;3037;51.068;13.780;2023-03-20T16:52:01;11.50;1.00
6018;DHT22;3037;51.068;13.780;2023-03-20T16:54:33;11.50;1.00
6018;DHT22;3037;51.068;13.780;2023-03-20T16:56:59;11.40;1.00
6018;DHT22;3037;51.068;13.780;2023-03-20T16:59:25;11.40;99.90
6018;DHT22;3037;51.068;13.780;2023-03-20T17:01:51;11.40;99.90
6018;DHT22;3037;51.068;13.780;2023-03-20T17:04:22;11.30;99.90
6018;DHT22;3037;51.068;13.780;2023-03-20T17:06:52;11.30;99.90
6018;DHT22;3037;51.068;13.780;2023-03-20T17:09:24;11.30;99.90
6018;DHT22;3037;51.068;13.780;2023-03-20T17:12:01;11.30;99.90
6018;DHT22;3037;51.068;13.780;2023-03-20T17:14:29;11.30;99.90
6018;DHT22;3037;51.068;13.780;2023-03-20T17:16:54;11.30;99.90
6018;DHT22;3037;51.068;13.780;2023-03-20T17:19:23;11.30;99.90
6018;DHT22;3037;51.068;13.780;2023-03-20T17:21:48;11.30;99.90
6018;DHT22;3037;51.068;13.780;2023-03-20T17:24:15;11.30;99.90
6018;DHT22;3037;51.068;13.780;2023-03-20T17:26:44;11.20;99.90
6018;DHT22;3037;51.068;13.780;2023-03-20T17:29:11;11.30;99.90
6018;DHT22;3037;51.068;13.780;2023-03-20T17:31:37;11.20;99.90
6018;DHT22;3037;51.068;13.780;2023-03-20T17:34:03;11.20;99.90
6018;DHT22;3037;51.068;13.780;2023-03-20T17:36:33;11.20;99.90
6018;DHT22;3037;51.068;13.780;2023-03-20T17:38:59;11.10;99.90
6018;DHT22;3037;51.068;13.780;2023-03-20T17:41:26;11.10;99.90
6018;DHT22;3037;51.068;13.780;2023-03-20T17:43:52;11.10;99.90
6018;DHT22;3037;51.068;13.780;2023-03-20T17:46:29;11.10;99.90
6018;DHT22;3037;51.068;13.780;2023-03-20T17:49:01;11.00;99.90
6018;DHT22;3037;51.068;13.780;2023-03-20T17:51:28;11.00;99.90
6018;DHT22;3037;51.068;13.780;2023-03-20T17:53:53;11.00;99.90
6018;DHT22;3037;51.068;13.780;2023-03-20T17:56:23;10.90;99.90
6018;DHT22;3037;51.068;13.780;2023-03-20T17:58:49;10.90;99.90
6018;DHT22;3037;51.068;13.780;2023-03-20T18:01:15;10.90;99.90
6018;DHT22;3037;51.068;13.780;2023-03-20T18:03:41;10.90;99.90
6018;DHT22;3037;51.068;13.780;2023-03-20T18:08:44;10.90;99.90
6018;DHT22;3037;51.068;13.780;2023-03-20T18:11:10;11.00;99.90
6018;DHT22;3037;51.068;13.780;2023-03-20T18:13:36;11.00;99.90
6018;DHT22;3037;51.068;13.780;2023-03-20T18:16:01;10.90;99.90
6018;DHT22;3037;51.068;13.780;2023-03-20T18:18:27;10.90;99.90
6018;DHT22;3037;51.068;13.780;2023-03-20T18:20:52;10.90;99.90
6018;DHT22;3037;51.068;13.780;2023-03-20T18:23:19;10.90;99.90
6018;DHT22;3037;51.068;13.780;2023-03-20T18:25:46;10.90;99.90
6018;DHT22;3037;51.068;13.780;2023-03-20T18:28:14;10.90;99.90
6018;DHT22;3037;51.068;13.780;2023-03-20T18:30:45;10.90;99.90
6018;DHT22;3037;51.068;13.780;2023-03-20T18:33:10;10.90;99.90